createdAt,value
2022-08-17T00:01:52.741Z,100244.84
2022-08-17T00:05:00.886Z,100253.06
2022-08-17T00:08:06.988Z,100254.59
2022-08-17T00:11:17.004Z,100249.41
2022-08-17T00:14:22.291Z,100246.34
2022-08-17T03:09:45.611Z,100183.72
2022-08-17T03:12:51.007Z,100182.66
2022-08-17T03:15:55.714Z,100175.66
2022-08-17T03:19:00.303Z,100190.78
2022-08-17T03:22:35.442Z,100144.94
2022-08-17T03:25:38.139Z,100178.81
2022-08-17T03:28:43.654Z,100180.09
2022-08-17T03:31:48.184Z,100179.84
2022-08-17T03:34:52.703Z,100174.88
2022-08-17T03:38:00.663Z,100180.56
2022-08-17T03:41:07.410Z,100186.00
2022-08-17T03:44:12.236Z,100166.56
2022-08-17T03:47:35.742Z,100176.72
2022-08-17T03:50:59.938Z,100165.28
2022-08-17T03:54:22.874Z,100171.06
2022-08-17T03:57:28.480Z,100161.34
2022-08-17T04:00:33.186Z,100165.13
2022-08-17T04:03:44.034Z,100159.94
2022-08-17T04:06:49.029Z,100151.63
2022-08-17T04:09:53.581Z,100151.03
2022-08-17T04:13:02.148Z,100149.47
2022-08-17T04:16:06.868Z,100151.56
2022-08-17T04:19:12.005Z,100137.38
2022-08-17T04:22:30.600Z,100146.53
2022-08-17T04:25:40.444Z,100137.88
2022-08-17T04:28:45.829Z,100145.63
2022-08-17T04:31:50.482Z,100137.06
2022-08-17T04:34:54.667Z,100136.19
2022-08-17T04:38:00.022Z,100119.13
2022-08-17T04:41:24.264Z,100115.69
2022-08-17T04:44:37.354Z,100126.78
2022-08-17T04:47:42.405Z,100117.00
2022-08-17T04:50:49.561Z,100110.19
2022-08-17T04:54:00.969Z,100110.53
2022-08-17T04:57:05.828Z,100098.78
2022-08-17T05:00:11.837Z,100098.56
2022-08-17T05:03:16.397Z,100105.59
2022-08-17T05:06:21.362Z,100096.53
2022-08-17T05:09:26.046Z,100077.41
2022-08-17T05:12:30.565Z,100109.94
2022-08-17T05:15:36.891Z,100097.38
2022-08-17T05:18:41.698Z,100105.44
2022-08-17T05:21:46.430Z,100098.63
2022-08-17T05:24:53.911Z,100082.56
2022-08-17T05:28:00.261Z,100086.66
2022-08-17T05:31:07.002Z,100096.38
2022-08-17T05:34:12.377Z,100075.53
2022-08-17T05:37:17.217Z,100091.44
2022-08-17T05:40:22.569Z,100083.44
2022-08-17T05:43:33.221Z,100081.00
2022-08-17T05:46:43.217Z,100081.38
2022-08-17T05:49:49.007Z,100080.03
2022-08-17T05:53:35.224Z,100074.59
2022-08-17T05:56:54.718Z,100079.03
2022-08-17T06:00:20.240Z,100070.47
2022-08-17T06:03:44.036Z,100080.22
2022-08-17T06:06:57.412Z,100041.97
2022-08-17T06:10:43.146Z,100065.34
2022-08-17T06:13:51.496Z,100067.41
2022-08-17T06:17:05.719Z,100062.63
2022-08-17T06:20:14.187Z,100051.88
2022-08-17T06:23:46.759Z,100056.31
2022-08-17T06:26:53.351Z,100066.03
2022-08-17T06:30:57.385Z,100066.38
2022-08-17T06:33:55.342Z,100058.16
2022-08-17T06:37:28.570Z,100054.41
2022-08-17T06:40:46.467Z,100053.88
2022-08-17T06:44:02.880Z,100061.59
2022-08-17T06:47:28.411Z,100063.47
2022-08-17T06:51:00.887Z,100056.47
2022-08-17T06:54:08.838Z,100048.28
2022-08-17T06:57:20.038Z,100053.59
2022-08-17T07:00:31.052Z,100044.31
2022-08-17T07:03:38.637Z,100047.59
2022-08-17T07:07:28.750Z,100042.81
2022-08-17T07:10:48.326Z,100046.94
2022-08-17T07:14:25.137Z,100030.84
2022-08-17T07:17:46.803Z,100056.81
2022-08-17T07:20:56.854Z,100026.94
2022-08-17T07:24:28.123Z,100046.25
2022-08-17T07:27:46.678Z,100043.69
2022-08-17T07:30:56.328Z,100055.28
2022-08-17T07:34:09.212Z,100051.53
2022-08-17T07:37:14.841Z,100041.47
2022-08-17T07:40:41.621Z,100042.97
2022-08-17T07:43:53.270Z,100045.03
2022-08-17T07:47:17.451Z,100042.28
2022-08-17T07:50:40.467Z,100043.47
2022-08-17T07:53:46.175Z,100048.75
2022-08-17T07:56:59.907Z,100032.84
2022-08-17T08:00:17.585Z,100049.59
2022-08-17T08:03:32.795Z,100036.94
2022-08-17T08:06:53.489Z,100048.38
2022-08-17T08:10:27.978Z,100048.06
2022-08-17T08:13:34.238Z,100047.00
2022-08-17T08:16:38.491Z,100035.56
2022-08-17T08:19:43.290Z,100045.81
2022-08-17T08:23:06.194Z,100048.53
2022-08-17T08:26:23.915Z,100050.59
2022-08-17T08:29:46.355Z,100043.91
2022-08-17T08:33:13.369Z,100043.03
2022-08-17T08:36:56.907Z,100035.47
2022-08-17T08:41:05.659Z,100047.50
2022-08-17T08:45:00.801Z,100037.38
2022-08-17T08:48:53.835Z,100030.34
2022-08-17T08:51:59.032Z,100036.53
2022-08-17T08:55:17.580Z,100029.53
2022-08-17T08:58:45.875Z,100039.50
2022-08-17T09:02:14.941Z,100034.22
2022-08-17T09:05:43.856Z,100035.50
2022-08-17T09:08:57.928Z,100038.94
2022-08-17T09:12:06.893Z,100026.03
2022-08-17T09:15:28.439Z,100041.13
2022-08-17T09:18:59.820Z,100023.59
2022-08-17T09:22:26.445Z,100046.25
2022-08-17T09:25:36.388Z,100044.47
2022-08-17T09:28:49.355Z,100046.41
2022-08-17T09:32:04.516Z,100043.19
2022-08-17T09:35:23.541Z,100050.00
2022-08-17T09:38:45.021Z,100046.97
2022-08-17T09:42:05.773Z,100046.25
2022-08-17T09:45:37.604Z,100037.66
2022-08-17T09:48:56.266Z,100037.59
2022-08-17T09:52:23.317Z,100030.56
2022-08-17T09:56:04.500Z,100047.28
2022-08-17T09:59:22.595Z,100042.72
2022-08-17T10:02:42.634Z,100051.75
2022-08-17T10:06:14.309Z,100046.75
2022-08-17T10:09:44.659Z,100048.78
2022-08-17T10:13:00.023Z,100055.19
2022-08-17T10:16:31.323Z,100054.41
2022-08-17T10:19:53.730Z,100058.81
2022-08-17T10:23:34.289Z,100054.38
2022-08-17T10:26:57.177Z,100052.09
2022-08-17T10:30:05.725Z,100057.13
2022-08-17T10:33:24.451Z,100051.25
2022-08-17T10:36:59.832Z,100043.34
2022-08-17T10:40:26.707Z,100065.84
2022-08-17T10:44:36.605Z,100062.28
2022-08-17T10:47:15.370Z,100064.19
2022-08-17T10:51:01.461Z,100066.16
2022-08-17T10:54:42.435Z,100055.13
2022-08-17T10:57:51.045Z,100060.81
2022-08-17T11:00:55.727Z,100063.06
2022-08-17T11:04:05.263Z,100068.63
2022-08-17T11:07:18.733Z,100076.78
2022-08-17T11:10:52.320Z,100075.31
2022-08-17T11:14:25.683Z,100068.09
2022-08-17T11:17:51.124Z,100060.13
2022-08-17T11:20:58.770Z,100076.94
2022-08-17T11:24:25.045Z,100084.97
2022-08-17T11:27:29.481Z,100084.13
2022-08-17T11:30:52.004Z,100078.50
2022-08-17T11:34:03.140Z,100082.66
2022-08-17T11:37:32.491Z,100071.31
2022-08-17T11:41:17.203Z,100093.16
2022-08-17T11:44:43.263Z,100077.69
2022-08-17T11:48:27.660Z,100096.09
2022-08-17T11:51:57.362Z,100093.91
2022-08-17T11:55:31.920Z,100093.53
2022-08-17T11:58:32.737Z,100095.63
2022-08-17T12:01:57.488Z,100095.72
2022-08-17T12:05:23.841Z,100099.53
2022-08-17T12:08:31.210Z,100090.19
2022-08-17T12:11:57.795Z,100082.69
2022-08-17T12:15:11.017Z,100086.47
2022-08-17T12:18:42.707Z,100094.38
2022-08-17T12:22:05.111Z,100095.53
2022-08-17T12:25:21.490Z,100080.47
2022-08-17T12:28:34.242Z,100085.97
2022-08-17T12:31:45.913Z,100086.59
2022-08-17T12:34:52.028Z,100077.97
2022-08-17T12:37:58.784Z,100068.72
2022-08-17T12:41:26.277Z,100071.16
2022-08-17T12:44:40.509Z,100096.31
2022-08-17T12:48:09.807Z,100087.16
2022-08-17T12:51:17.923Z,100095.47
2022-08-17T12:54:46.639Z,100096.91
2022-08-17T12:57:55.119Z,100092.75
2022-08-17T13:01:09.613Z,100088.31
2022-08-17T13:04:17.165Z,100091.94
2022-08-17T13:07:30.841Z,100096.22
2022-08-17T13:10:38.686Z,100097.19
2022-08-17T13:13:56.854Z,100100.53
2022-08-17T13:17:08.572Z,100092.69
2022-08-17T13:20:17.475Z,100096.44
2022-08-17T13:23:22.549Z,100078.78
2022-08-17T13:26:35.277Z,99961.09
2022-08-17T13:30:02.281Z,100095.19
2022-08-17T13:33:43.621Z,100075.09
2022-08-17T13:36:50.750Z,100075.22
2022-08-17T13:40:03.817Z,100089.81
2022-08-17T13:43:09.785Z,100070.88
2022-08-17T13:46:25.202Z,100075.22
2022-08-17T13:49:41.933Z,100072.38
2022-08-17T13:52:53.356Z,100075.44
2022-08-17T13:56:02.462Z,100075.88
2022-08-17T13:59:12.117Z,100086.84
2022-08-17T14:02:19.539Z,100070.81
2022-08-17T14:05:24.084Z,100068.28
2022-08-17T14:08:31.686Z,100050.84
2022-08-17T14:11:36.985Z,100044.72
2022-08-17T14:14:43.865Z,100054.75
2022-08-17T14:17:50.170Z,100056.47
2022-08-17T14:20:57.564Z,100041.09
2022-08-17T14:24:01.971Z,100034.28
2022-08-17T14:27:12.786Z,100027.06
2022-08-17T14:30:18.441Z,100056.53
2022-08-17T14:33:25.628Z,100058.19
2022-08-17T14:36:32.159Z,100034.47
2022-08-17T14:39:36.800Z,100058.13
2022-08-17T14:42:43.903Z,100050.38
2022-08-17T14:45:50.838Z,100053.25
2022-08-17T14:48:57.494Z,100050.53
2022-08-17T14:52:02.603Z,100059.16
2022-08-17T14:55:07.812Z,100052.91
2022-08-17T15:01:17.305Z,100031.34
2022-08-17T15:04:21.997Z,100046.38
2022-08-17T15:07:30.880Z,100041.66
2022-08-17T15:10:37.656Z,100052.06
2022-08-17T15:13:52.411Z,100048.06
2022-08-17T15:16:57.507Z,100046.25
2022-08-17T15:20:02.296Z,100032.97
2022-08-17T15:23:10.358Z,100050.03
2022-08-17T15:26:14.905Z,100024.03
2022-08-17T15:29:19.625Z,100030.03
2022-08-17T15:32:38.966Z,100030.25
2022-08-17T15:35:43.994Z,100018.03
2022-08-17T15:38:48.597Z,100002.00
2022-08-17T15:41:58.145Z,100022.16
2022-08-17T15:45:14.229Z,100019.47
2022-08-17T15:48:19.447Z,100021.72
2022-08-17T15:51:26.191Z,100019.47
2022-08-17T15:54:34.540Z,100009.84
2022-08-17T15:57:41.166Z,100016.09
2022-08-17T16:00:53.499Z,100016.78
2022-08-17T16:04:26.636Z,100018.03
2022-08-17T16:07:35.354Z,99995.78
2022-08-17T16:10:40.182Z,100006.28
2022-08-17T16:13:47.384Z,99999.31
2022-08-17T16:17:00.054Z,99996.19
2022-08-17T16:20:05.393Z,100008.75
2022-08-17T16:23:16.087Z,99991.78
2022-08-17T16:26:25.183Z,99986.09
2022-08-17T16:29:29.366Z,99998.38
2022-08-17T16:32:33.911Z,99986.56
2022-08-17T16:35:38.498Z,99985.19
2022-08-17T16:38:43.184Z,99988.97
2022-08-17T16:41:47.940Z,99999.06
2022-08-17T16:44:54.921Z,99990.78
2022-08-17T16:48:00.058Z,99998.84
2022-08-17T16:51:04.693Z,99969.81
2022-08-17T16:54:09.471Z,99967.09
2022-08-17T16:57:16.441Z,99965.59
2022-08-17T17:00:21.766Z,99971.63
2022-08-17T17:03:29.018Z,99971.28
2022-08-17T17:06:42.409Z,99973.75
2022-08-17T17:09:49.829Z,99984.00
2022-08-17T17:13:03.982Z,99963.34
2022-08-17T17:16:30.935Z,99967.84
2022-08-17T17:20:13.481Z,99960.84
2022-08-17T17:23:30.817Z,99973.22
2022-08-17T17:27:01.779Z,99949.75
2022-08-17T17:30:44.465Z,99966.34
2022-08-17T17:33:57.696Z,99962.47
2022-08-17T17:37:07.137Z,99962.06
2022-08-17T17:40:43.169Z,99975.06
2022-08-17T17:43:50.212Z,99957.06
2022-08-17T17:47:01.495Z,99969.69
2022-08-17T17:50:09.518Z,99971.41
2022-08-17T17:53:23.235Z,99964.88
2022-08-17T17:56:47.212Z,99976.13
2022-08-17T18:00:04.666Z,99986.84
2022-08-17T18:03:44.204Z,99977.19
2022-08-17T18:06:51.439Z,99991.44
2022-08-17T18:10:30.104Z,99980.00
2022-08-17T18:13:57.707Z,99979.34
2022-08-17T18:17:03.287Z,99982.06
2022-08-17T18:20:08.385Z,99978.34
2022-08-17T18:23:12.973Z,99968.47
2022-08-17T18:26:37.380Z,99972.81
2022-08-17T18:29:45.527Z,99977.91
2022-08-17T18:32:50.407Z,99971.97
2022-08-17T18:35:58.796Z,99974.72
2022-08-17T18:39:33.074Z,99987.88
2022-08-17T18:42:39.536Z,99984.69
2022-08-17T18:45:49.846Z,99996.00
2022-08-17T18:49:01.383Z,99982.50
2022-08-17T18:52:15.796Z,99993.97
2022-08-17T18:55:29.317Z,99988.59
2022-08-17T18:58:33.724Z,99984.50
2022-08-17T22:04:12.346Z,99969.47
2022-08-17T22:07:17.231Z,99953.28
2022-08-17T22:10:44.618Z,99952.44
2022-08-17T22:13:49.697Z,99983.75
2022-08-17T22:17:12.214Z,99976.06
2022-08-17T22:20:20.412Z,99967.47
2022-08-17T22:23:45.490Z,99971.72
2022-08-17T22:27:08.427Z,99964.09
2022-08-17T22:30:28.391Z,99941.31
2022-08-17T22:33:52.099Z,99965.81
2022-08-17T22:37:27.415Z,99966.25
2022-08-17T22:40:35.561Z,99961.22
2022-08-17T22:43:43.084Z,99953.53
2022-08-17T22:47:00.131Z,99958.13
2022-08-17T22:50:13.492Z,99950.97
2022-08-17T22:53:42.252Z,99955.38
2022-08-17T22:57:19.938Z,99946.34
2022-08-17T23:00:50.757Z,99946.59
2022-08-17T23:04:13.119Z,99951.81
2022-08-17T23:07:18.440Z,99934.63
2022-08-17T23:10:23.278Z,99944.56
2022-08-17T23:13:29.375Z,99943.41
2022-08-17T23:16:33.930Z,99925.34
2022-08-17T23:19:38.644Z,99929.81
2022-08-17T23:22:52.372Z,99925.53
2022-08-17T23:25:57.842Z,99932.50
2022-08-17T23:29:05.288Z,99924.63
2022-08-17T23:32:13.108Z,99927.50
2022-08-17T23:35:18.257Z,99924.75
2022-08-17T23:38:23.408Z,99926.91
2022-08-17T23:41:34.075Z,99910.31
2022-08-17T23:44:40.761Z,99917.75
2022-08-17T23:47:46.256Z,99912.34
2022-08-17T23:50:53.764Z,99906.94
2022-08-17T23:54:07.941Z,99891.66
2022-08-17T23:57:16.019Z,99893.88
